aviador You're here:

KCGS Decoded Metar

COLLEGE PARK in MD, USA
Report Time2017-09-24 01:05:00
UTC Time2017-09-24 01:31:53
Flight Rules vfr VFR
WindCalm
Visibility9999 m
Phenomena:N/A
Clouds:N/A
Expected CloudBase > 800 ft AGL from Temp-Dew spread
CeilingNone
Temp19°C (ISA +4)
Dew Point17°C (88% RH)
QNH1018 hPa
Density Alt617 ft
Elevation49 ft
Report Wrong Elevation
Raw Report
KCGS 240105Z AUTO 00000KT 10SM CLR 19/17 A3007 RMK AO1
T01900165=

Extra information for KCGS:More info

Metar Taf Metar & Taf Last 4 Metars F.Rules Stats Wind Profile Meteogram Temp Stats Airport Information Weather charts Add Link Nearby VenuesMetar ALERT Operation Metar Decoded Social comments

AIRNAV info for KCGS